Warning: Javascript must be enabled to use all the features on this page!


Page Loading - Please Wait...

Click to hideNews Bulletins

Current Conditions for Wisconsin: Streamflow -- 243 site(s) found

PROVISIONAL DATA SUBJECT TO REVISION





Customize table to display other current-condition parameters
Station
Number
Station name Date/Time Gage
height,
feet
Dis-
charge,
ft3/s
Long-
term
median
flow
8/24
Group LAKE SUPERIOR BASIN
04024430 NEMADJI RIVER NEAR SOUTH SUPERIOR, WI  08/23 23:00 CDT -- 63.3 88.0 
      [Primary Stage]  08/23 23:00 CDT 4.29 --     --- 
04025500 BOIS BRULE RIVER AT BRULE, WI  08/23 23:00 CDT 1.53 133 130 
040263205 WHITTLESEY CREEK NEAR ASHLAND, WI  08/23 23:25 CDT 1.50 19.1 18.0 
04026390 BEARTRAP CREEK AT U.S. HIGHWAY 2 NEAR ASHLAND, WI  08/23 23:00 CDT 5.58 --     --- 
    07/19 18:15 CDT -- 30.3 .49 
04026561 TYLER FORKS RIVER AT STRICKER ROAD NEAR MELLEN, WI  08/23 23:30 CDT 3.07 10.6 14.0 
04027000 BAD RIVER NEAR ODANAH, WI  08/23 22:45 CDT 2.43 145 153 
04027500 WHITE RIVER NEAR ASHLAND, WI  08/23 23:15 CDT 0.97 258 186 
04027595 BAD RIVER AT ODANAH, WI  08/23 23:00 CDT 3.62 --     --- 
463741090521301 ASHLAND BREAKWATER LIGHTHOUSE CHEQUAMEGON BAY, WI 
      [2 min ave]  08/23 23:00 CDT 603.59 --     --- 
464646092052900 SUPERIOR BAY DULUTH SHIP CANAL AT DULUTH, MN  08/23 23:00 CDT -- 11,400     --- 
      [Accubar]  08/23 23:00 CDT 603.36 --     --- 
Group MENOMINEE-OCONTO-PESHTIGO RIVER BASINS
04060993 BRULE RIVER AT US HIGHWAY 2 NEAR FLORENCE, WI  08/23 21:30 CST 3.79 324 243 
04062011 BRULE RIVER NEAR COMMONWEALTH, WI  08/23 22:30 CST 7.10 618 430 
04063000 MENOMINEE RIVER NEAR FLORENCE, WI  08/23 22:00 CST 3.53 1,050 1,130 
04063700 POPPLE RIVER NEAR FENCE, WI  08/23 23:15 CDT 2.18 54.9 44.0 
04064500 PINE RIVER BELOW PINE R POWERPLANT NR FLORENCE, WI  08/23 23:00 CDT 2.40 330 212 
04065106 MENOMINEE RIVER AT NIAGARA, WI  08/23 23:00 CDT 5.37 1,240 1,300 
04065722 MENOMINEE RIVER NEAR VULCAN, MI  08/23 22:00 CST 5.52 1,550 1,429 
04066003 MENOMINEE RIVER BELOW PEMENE CREEK NEAR PEMBINE,WI  08/23 23:00 CDT 7.37 1,590 1,560 
04066030 MENOMINEE RIVER AT WHITE RAPIDS DAM NEAR BANAT, MI  08/23 23:30 CDT 6.58 1,470 1,360 
04066500 PIKE RIVER AT AMBERG, WI  08/23 23:00 CDT 2.68 160 116 
04066800 MENOMINEE RIVER AT KOSS, MI  08/23 22:30 CDT 10.21 2,150 1,800 
04067500 MENOMINEE RIVER NEAR MC ALLISTER, WI  08/23 23:15 CDT 9.12 2,010 1,930 
04067958 PESHTIGO RIVER NEAR WABENO, WI  08/23 23:15 CDT 4.24 329 192 
04069416 PESHTIGO RIVER AT PORTERFIELD, WI  08/23 23:05 CDT 8.30 728 386 
04069500 PESHTIGO RIVER AT PESHTIGO, WI  08/23 23:00 CDT 2.40 706 463 
04071000 OCONTO RIVER NEAR GILLETT, WI  08/23 23:00 CDT 1.56 517 322 
04071765 OCONTO RIVER NEAR OCONTO, WI  08/23 23:15 CDT 4.75 547 312 
04072076 SILVER CREEK AT FLORIST DRIVE AT ONEIDA, WI  08/23 23:00 CDT 2.26 0.22 .19 
445322088281801 BERRY LAKE NEAR SHAWANO, WI  08/23 23:00 CDT 94.71 --     --- 
Group FOX-WOLF RIVER BASINS
04073240 CHAFFEE CREEK AT I-39 NEAR COLOMA, WI  08/23 23:00 CDT 3.71 14.7     --- 
04073365 FOX RIVER AT PRINCETON, WI  08/23 23:00 CDT 6.14 1,140 497 
040734605 GREEN LAKE SW INLET @ CT HIGHWY K NR GREEN LAKE,WI  08/23 23:00 CDT -- 34.0 13.0 
      [(2)]  08/23 23:00 CDT 6.60 --     --- 
040734615 HILL CREEK NR MOUTH NEAR GREEN LAKE, WI  08/23 23:00 CDT 4.81 4.81     --- 
04073462 WHITE CREEK AT SPRING GROVE ROAD NR GREEN LAKE, WI  08/23 23:00 CDT 4.18 2.94 1.70 
04073466 SILVER CREEK AT SPAULDING ROAD NEAR GREEN LAKE, WI  08/23 23:00 CDT -- 20.1 15.0 
      [5-min Stage]  08/23 23:00 CDT 6.91 --     --- 
04073500 FOX RIVER AT BERLIN, WI  08/23 23:00 CDT 10.39 1,470 705 
04074950 WOLF RIVER AT LANGLADE, WI  08/23 23:15 CDT 8.09 438 259 
04077630 RED RIVER AT MORGAN ROAD NEAR MORGAN, WI  08/23 23:15 CDT 6.06 133 95.0 
04078500 EMBARRASS RIVER NEAR EMBARRASS, WI  08/23 23:00 CDT 3.21 278 141 
04079000 WOLF RIVER AT NEW LONDON, WI  08/23 23:00 CDT -- 1,830 924 
      [(2)]  08/23 23:00 CDT 4.31 --     --- 
04080000 LITTLE WOLF RIVER AT ROYALTON, WI  08/23 23:00 CDT 1.59 371 216 
04080798 TOMORROW RIVER NEAR NELSONVILLE, WI  08/23 23:00 CDT 8.59 28.4 27.0 
04081000 WAUPACA RIVER NEAR WAUPACA, WI  08/23 23:00 CDT 1.78 260 191 
04082400 FOX RIVER AT OSHKOSH, WI  08/23 23:00 CDT 6.39 2,820 2,880 
04082500 LAKE WINNEBAGO AT OSHKOSH, WI  08/23 23:00 CDT 3.07 --     --- 
04083515 HAWTHORNE DR STORM SEWER AT FOND DU LAC, WI 
      [BUBBLER, BIRCH]  08/23 23:00 CDT 0.00 --     --- 
      [BUBBLER, HOLLY]  08/23 23:00 CDT 0.00 --     --- 
      [HAWTHORNE]  08/23 23:00 CDT 0.00 --     --- 
04084255 LAKE WINNEBAGO NEAR STOCKBRIDGE, WI  08/23 23:00 CDT 2.89 --     --- 
04084445 FOX RIVER AT APPLETON, WI  08/23 23:00 CDT -- 5,210 1,830 
      [PIER]  08/23 23:00 CDT 5.66 --     --- 
      [UPSTREAM]  08/23 23:00 CDT 5.90 --     --- 
04084911 PLUM CREEK NEAR WRIGHTSTOWN, WI  08/23 23:00 CDT Mnt Mnt .86 
04084927 WEST PLUM CREEK AT NEW ROAD NEAR WRIGHTSTOWN, WI  08/23 23:00 CDT 2.72 0.18 .080 
04085068 ASHWAUBENON CREEK NEAR LITTLE RAPIDS, WI  08/23 23:00 CDT 2.85 --     --- 
040850684 ASHWAUBENON CREEK AT GRANT ST NR WEST DEPERE, WI  08/23 23:00 CDT 3.71 --     --- 
      [(2)]  08/23 23:00 CDT -- 1.78     --- 
04085074 DUTCHMAN CREEK AT CYRUS ST NR ASHWAUBENON, WI  08/23 21:00 CDT 4.17 --     --- 
04085078 DUTCHMAN CREEK AT HANSEN RD AT ASHWAUBENON, WI  08/23 23:00 CDT 4.21 --     --- 
04085108 EAST RIVER @ CNTY TRUNK HIGHWAY ZZ NR GREENLEAF,WI  08/23 23:00 CDT 4.58 3.25 .76 
040851385 FOX RIVER AT OIL TANK DEPOT AT GREEN BAY, WI  08/19 15:20 CDT Eqp Eqp 1,970 
      [PS-2]  06/29 17:50 CDT 582.33 --     --- 
434840089000001 GREEN LAKE AT GREEN LAKE, WI  08/23 23:00 CDT 6.60 --     --- 
441520088045001 GLRI EAST RIVER WATERWAY 3 NEAR GREENLEAF, WI  08/23 23:00 CDT 0.02 0.00340 .000 
441520088045002 GLRI EAST RIVER TILE 1 NEAR GREENLEAF, WI  08/23 23:05 CDT 0.23 0.03538 .000 
441546088082001 GLRI EAST RIVER WATERWAY NUMBER 2 NR GREENLEAF, WI  08/23 23:00 CDT -0.03 0.00000 .000 
441748088133701 TRT WETLAND ONE SURFACE INLET NR KAUKAUNA, WI  08/23 18:15 CDT 0.01 --     --- 
      [STGQ]  08/23 18:15 CDT -- 0.00834     --- 
441748088133702 TRT WETLAND ONE DRAIN TILE INLET NR KAUKAUNA, WI  08/23 18:19 CDT 0.04 --     --- 
      [STGQ]  08/23 18:19 CDT -- 0.00049     --- 
441748088133703 TRT WETLAND ONE SED BASIN OUTLET NR KAUKAUNA, WI  08/23 18:15 CDT 3.12 --     --- 
441748088133704 TRT WETLAND ONE OUTLET NR KAUKAUNA, WI  08/23 23:15 CDT Eqp --     --- 
      [CR Q-Vel Computed]  08/23 23:15 CDT -- 0.00     --- 
442114088085701 GLRI WATERWAY NUMBER 5 NR WRIGHTSTOWN, WI  08/23 23:00 CDT 0.01 0.00126 .000 
442119088085501 GLRI WATERWAY NUMBER 4 NR WRIGHTSTOWN, WI  08/23 23:00 CDT 0.01 0.00000 .000 
Group LAKE MICHIGAN BASIN
04085200 KEWAUNEE RIVER NEAR KEWAUNEE, WI  08/23 23:00 CDT 8.88 26.1 18.0 
04085427 MANITOWOC RIVER AT MANITOWOC, WI  08/23 23:00 CDT 4.67 123 50.0 
04086000 SHEBOYGAN RIVER AT SHEBOYGAN, WI  08/23 23:00 CDT 2.39 152 69.0 
04086500 CEDAR CREEK NEAR CEDARBURG, WI  08/23 23:00 CDT 5.32 31.1 19.0 
04086600 MILWAUKEE RIVER NEAR CEDARBURG, WI  08/23 23:00 CDT 5.97 244 219 
040869416 LINCOLN CREEK @ SHERMAN BOULEVARD AT MILWAUKEE, WI  08/23 23:00 CDT 3.55 1.71 2.00 
04087000 MILWAUKEE RIVER AT MILWAUKEE, WI  08/23 22:45 CDT -- 237 138 
      [15-min Interval]  08/23 23:00 CDT 2.06 --     --- 
04087030 MENOMONEE RIVER AT MENOMONEE FALLS, WI  08/23 22:45 CDT 2.93 5.66 6.80 
04087050 LITTLE MENOMONEE RIVER NEAR FREISTADT, WI  08/23 23:00 CDT 1.98 1.30 .71 
04087070 LITTLE MENOMONEE RIVER AT MILWAUKEE, WI  08/23 23:00 CDT 3.64 4.48 2.80 
0408708567 UNDERWOOD CREEK AT UNNAMED ROAD, ELM GROVE, WI  08/23 23:00 CDT 19.27 --     --- 
040870860 UNDERWOOD CREEK AT W BLUE MOUND RD, ELM GROVE, WI  08/23 23:00 CDT 12.25 --     --- 
04087087 UNDERWOOD CREEK AT 115TH STREET AT WAUWATOSA, WI  08/23 23:00 CDT 8.68 --     --- 
040870876 UNDERWOOD CR ON BIKE PATH/Rt 100, WEST ALLIS, WI.  08/23 23:00 CDT 0.72 --     --- 
04087088 UNDERWOOD CREEK AT WAUWATOSA, WI  08/23 23:00 CDT 8.05 2.56 6.80 
      [By-Pass Channel]  04/05 06:00 CDT 12.24 --     --- 
04087119 HONEY CREEK AT WAUWATOSA, WI  08/23 23:00 CDT 9.83 1.85 3.30 
04087120 MENOMONEE RIVER AT WAUWATOSA, WI  08/23 23:00 CDT 1.91 54.9 26.0 
04087142 MENOMONEE RIVER AT 16TH STREET AT MILWAUKEE, WI  08/23 23:00 CDT 15.89 --     --- 
      [Q-Vel]  08/23 23:00 CDT -- 203 30.0 
040871473 WILSON PARK CREEK AT GMIA INFALL AT MILWAUKEE, WI  08/23 23:00 CDT 10.62 0.03 .22 
040871475 WILSON PARK CREEK @ GMIA OUTFALL #7 @ MILWAUKEE,WI  08/23 23:00 CDT 10.83 0.55 .70 
040871476 HOLMES AVE CRK TRIB @ GMIA OUTFALL #1 AT MILWAUKEE  08/23 23:00 CDT 0.10 0.00 .000 
040871488 WILSON PARK CK @ ST. LUKES HOSPITAL @ MILWAUKEE,WI  08/23 23:00 CDT 11.03 2.43 5.50 
04087159 KINNICKINNIC RIVER @ S. 11TH STREET @ MILWAUKEE,WI  08/23 23:00 CDT 6.13 4.56 8.90 
04087170 MILWAUKEE RIVER AT MOUTH AT MILWAUKEE, WI  08/23 23:00 CDT 11.55 --     --- 
      [FINAL]  08/23 21:05 CDT -- -4,360     --- 
04087204 OAK CREEK AT SOUTH MILWAUKEE, WI  08/23 23:00 CDT 2.31 2.84 5.80 
04087214 ROOT RIVER AT GRANGE AVENUE AT GREENFIELD, WI  08/23 23:00 CDT 10.53 2.29 2.50 
04087220 ROOT RIVER NEAR FRANKLIN, WI  08/23 23:00 CDT 1.96 8.74 10.0 
04087233 ROOT RIVER CANAL NEAR FRANKLIN, WI  08/23 23:00 CDT 2.01 7.38 3.40 
04087234 ROOT RIVER AT 60TH ST NEAR CALEDONIA, WI  08/23 23:00 CDT 3.27 13.1 16.0 
04087240 ROOT RIVER AT RACINE, WI  08/23 23:00 CDT 2.38 26.8 20.0 
04087257 PIKE RIVER NEAR RACINE, WI  08/23 23:00 CDT 1.36 9.31 10.0 
435950087572701 DISCOVERY FARMS TILE NEAR SAINT NAZIANZ, WI  08/23 23:00 CDT -- 0.00000     --- 
      [HEADWATER]  08/23 23:00 CDT -0.79 --     --- 
442155087330001 DISCOVERY FARMS WATERWAY KD2 NEAR KEWAUNEE, WI  08/23 23:00 CDT 0.02 0.01     --- 
442405087414401 DISCOVERY FARMS WATERWAY KD1 NEAR KEWAUNEE, WI  08/23 23:00 CDT -0.00 0.00     --- 
444037087265601 DISCOVERY FARMS TILE NEAR ALGOMA, WI  08/23 23:05 CDT -- 0.00250     --- 
      [HEADWATER]  08/23 23:05 CDT 0.05 --     --- 
445014088183601 DISCOVERY FARMS TILE NEAR PULCIFER, WI  08/23 23:00 CDT -- 0.00000     --- 
      [HEADWATER]  08/23 23:00 CDT -0.88 --     --- 
Group ST. CROIX RIVER BASIN
05331833 NAMEKAGON RIVER AT LEONARDS, WI  08/23 23:00 CDT 1.80 122 99.0 
05333500 ST. CROIX RIVER NEAR DANBURY, WI  08/23 23:00 CDT 1.32 1,290 931 
05340500 ST. CROIX RIVER AT ST. CROIX FALLS, WI  08/23 23:00 CDT 3.27 3,000 2,240 
05341752 WILLOW RIVER @ WILLOW R STATE PARK NR BURKHARDT,WI  08/23 23:00 CDT 3.80 158 169 
05342000 KINNICKINNIC RIVER NEAR RIVER FALLS, WI  08/23 23:00 CDT 9.67 130 101 
05344490 ST. CROIX RIVER AT PRESCOTT, WI  08/23 23:15 CDT 26.36 4,060 4,500 
05344500 MISSISSIPPI RIVER AT PRESCOTT, WI  08/23 23:15 CDT 26.40 --     --- 
    08/23 22:30 CDT -- 22,300 10,200 
Group CHIPPEWA RIVER BASIN
05356000 CHIPPEWA RIVER AT BISHOPS BRIDGE NEAR WINTER, WI  08/23 23:00 CDT 5.14 710 512 
05356500 CHIPPEWA RIVER NEAR BRUCE, WI  08/23 22:45 CDT 2.56 1,170 890 
05357205 ALLEQUASH CREEK NEAR SAYNER, WI  08/23 23:00 CDT 1.01 --     --- 
05357206 ALLEQUASH CREEK SITE NO. 3 NR BOULDER JUNCTION, WI 
      [DOWNSTREAM]  08/23 23:00 CDT -- 5.05 3.30 
      [Gage Height]  08/23 23:00 CDT 0.64 --     --- 
05357215 ALLEQUASH CREEK @ CT HWY M NR BOULDER JUNCTION, WI  08/23 23:00 CDT -- 13.0 7.90 
      [Gage Height]  08/23 23:00 CDT 1.52 --     --- 
05357225 STEVENSON CREEK @ CT HWY M NR BOULDER JUNCTION, WI  08/23 23:00 CDT -- 5.07 2.30 
      [Gage Height]  08/23 23:00 CDT 8.03 --     --- 
05357230 NORTH CREEK AT TROUT LAKE NEAR BOULDER JUNCTION,WI  08/23 23:00 CDT -- 3.45 2.70 
      [Gage Height]  08/23 23:00 CDT 8.07 --     --- 
05357245 TROUT RIVER AT TROUT LAKE NEAR BOULDER JUNCTION,WI  08/23 23:00 CDT -- 40.5 27.0 
      [Gage Height]  08/23 23:00 CDT 1.31 --     --- 
05357335 BEAR RIVER NEAR MANITOWISH WATERS, WI  08/23 23:15 CDT 4.93 60.3 48.0 
05359500 SOUTH FORK FLAMBEAU RIVER NEAR PHILLIPS, WI  08/23 23:00 CDT 5.50 400 175 
05360500 FLAMBEAU RIVER NEAR BRUCE, WI  08/23 23:15 CDT 6.03 1,250 1,070 
05362000 JUMP RIVER AT SHELDON, WI  08/23 23:00 CDT 4.18 434 71.0 
05365500 CHIPPEWA RIVER AT CHIPPEWA FALLS, WI  08/23 23:00 CDT 4.04 2,960 2,680 
05365550 CHIPPEWA RIVER BELOW DELLS DAM AT EAU CLAIRE, WI  08/23 23:00 CDT 5.96 3,550 3,410 
05366800 CHIPPEWA R AT GRAND AVE AT EAU CLAIRE, WI  08/23 23:00 CDT 4.73 3,930 3,870 
      [BUBBLER]  08/23 23:00 CDT 4.74 --     --- 
      [RADAR]  08/23 23:00 CDT 4.73 --     --- 
053674967 TROUT CREEK AT TENTH STREET NEAR BLOOMER, WI  08/23 23:15 CDT 3.99 11.9 16.0 
05367500 RED CEDAR RIVER NEAR COLFAX, WI  08/23 23:00 CDT 3.11 885 567 
05368000 HAY RIVER AT WHEELER, WI  08/23 23:15 CDT 3.98 298 228 
05369000 RED CEDAR RIVER AT MENOMONIE, WI  08/23 23:00 CDT 7.05 1,430 900 
05369500 CHIPPEWA RIVER AT DURAND, WI  08/23 23:00 CDT 4.16 6,240 4,480 
05370000 EAU GALLE RIVER AT SPRING VALLEY, WI  08/23 23:00 CDT 12.44 25.3 18.0 
Group TREMPEALEAU-BLACK-LA CROSSE RIVER BASINS
05378500 MISSISSIPPI RIVER AT WINONA, MN  08/23 22:45 CDT 6.04 36,500 17,100 
05379400 TREMPEALEAU RIVER AT ARCADIA, WI  08/23 23:00 CDT -- 685 273 
      [Current Stage]  08/23 23:00 CDT 4.05 --     --- 
05379500 TREMPEALEAU RIVER AT DODGE, WI  08/23 23:00 CDT -- 603 321 
      [Current Stage]  08/23 23:00 CDT 5.90 --     --- 
05381000 BLACK RIVER AT NEILLSVILLE, WI  08/23 23:15 CDT 3.63 251 75.0 
053813595 BLACK RIVER DS ST HWY 54 AT BLACK RIVER FALLS, WI  08/23 23:00 CDT 36.65 728 527 
05382000 BLACK RIVER NEAR GALESVILLE, WI  08/23 23:00 CDT -- 1,960 595 
      [MODEM Stage]  08/23 23:00 CDT 4.76 --     --- 
05382255 STILLWELL CREEK AT SIXTEENTH COURT NEAR TOMAH, WI  08/23 23:00 CDT 2.52 2.39 1.90 
05382257 STILLWELL CREEK AT YARD ROAD NEAR TOMAH, WI  08/23 23:00 CDT 2.06 1.74 2.10 
05382267 LA CROSSE RIVER @ CNTY TRUNK HIGHWY BB NR TOMAH,WI  08/23 23:00 CDT 6.49 74.4 64.0 
05382284 SILVER CREEK AT STATE HIGHWAY 21 NEAR ANGELO, WI  08/23 23:00 CDT 5.64 43.9 32.0 
05382325 LA CROSSE RIVER AT SPARTA, WI  08/23 23:15 CDT 3.78 167 140 
05383075 LA CROSSE RIVER NEAR LA CROSSE, WI  08/23 23:15 CDT 3.04 529 323 
05386400 MISSISSIPPI RIVER AT BROWNSVILLE, MN  08/23 22:45 CDT 31.38 --     --- 
05389500 Mississippi River at McGregor, IA 
      [stage-only period of record]  08/23 22:45 CDT 8.98 --     --- 
Group WISCONSIN RIVER BASIN
05390500 ANVIL LAKE NEAR EAGLE RIVER, WI  08/23 23:30 CDT 93.99 --     --- 
05391000 WISCONSIN RIVER @ RAINBOW LAKE NR LAKE TOMAHAWK,WI  08/23 23:00 CDT 2.09 648 540 
05393500 SPIRIT RIVER AT SPIRIT FALLS, WI  08/23 23:30 CDT 2.13 77.3 14.0 
05394500 PRAIRIE RIVER NEAR MERRILL, WI  08/23 23:15 CDT 2.26 123 94.0 
05395000 WISCONSIN RIVER AT MERRILL, WI  08/23 23:15 CDT 5.16 2,420 1,850 
05396000 BIG RIB RIVER AT RIB FALLS, WI  08/23 23:00 CDT 2.47 100 37.0 
05397500 EAU CLAIRE RIVER AT KELLY, WI  08/23 23:00 CDT 0.73 120 91.0 
05398000 WISCONSIN RIVER AT ROTHSCHILD, WI  08/23 23:00 CDT 13.49 --     --- 
      [SLOPE-SLPQ]  08/23 23:00 CDT -- 2,310 2,090 
05398100 WISCONSIN RIVER AT MOSINEE, WI  08/23 23:20 CDT 11.86 --     --- 
05399500 BIG EAU PLEINE RIVER AT STRATFORD, WI  08/23 23:00 CDT 2.54 22.9 12.0 
05400625 LITTLE PLOVER RIVER NEAR PLOVER, WI  08/23 23:00 CDT 3.41 6.74 4.40 
05400760 WISCONSIN RIVER AT WISCONSIN RAPIDS, WI  08/23 23:30 CDT 2.86 3,150     --- 
05401034 S.BR.TENMILE CREEK NEAR BANCROFT, WI  08/23 23:00 CDT 3.76 16.4     --- 
05401050 TENMILE CREEK NEAR NEKOOSA, WI  08/23 23:00 CDT 5.16 86.5 42.0 
05401063 LAKE HURON NEAR PLAINFIELD, WI  08/23 23:00 CDT 97.29 --     --- 
05401065 LONG LAKE NEAR PLAINFIELD, WI  08/23 22:45 CDT 16.01 --     --- 
05401067 PLAINFIELD LAKE NEAR PLAINFIELD, WI  08/23 23:00 CDT 16.42 --     --- 
05401514 BIG ROCHE A CRI CREEK AT HWY G NR LEOLA, WI  08/23 23:00 CDT 4.15 21.4     --- 
05402000 YELLOW RIVER AT BABCOCK, WI  08/23 23:00 CDT 2.26 49.9     --- 
05403000 YELLOW RIVER AT NECEDAH, WI  08/23 23:30 CDT 10.12 339 83.0 
05403500 LEMONWEIR RIVER AT NEW LISBON, WI  08/23 22:00 CDT 5.27 484 131 
05404000 WISCONSIN RIVER NEAR WISCONSIN DELLS, WI  08/23 23:15 CDT 4.13 6,460 3,740 
05404129 BARABOO RIVER AT LA VALLE, WI  08/23 22:00 CST 6.38 --     --- 
05404140 W BRANCH BIG CREEK AT CLARK RD NR LA VALLE, WI  08/23 22:45 CDT 1.48 --     --- 
05404147 BIG CREEK OUTLET AT LAKE REDSTONE NR LA VALLE, WI  08/23 22:45 CDT 1.56 --     --- 
05404500 DEVILS LAKE NEAR BARABOO, WI  08/23 23:00 CDT 8.42 --     --- 
05405000 BARABOO RIVER NEAR BARABOO, WI  08/23 23:00 CDT 8.98 472 221 
05406457 BLACK EARTH CREEK NR BREWERY RD AT CROSS PLAINS,WI  08/23 23:00 CDT 2.19 20.4 14.0 
05406469 BREWERY CREEK-UPSTREAM SITE-AT CROSS PLAINS, WI  08/23 23:00 CDT 2.62 7.68 2.40 
05406479 BLACK EARTH CK NR TREATMENT PLNT @ CROSS PLAINS,WI  08/23 23:00 CDT 3.19 32.2 17.0 
05406500 BLACK EARTH CREEK AT BLACK EARTH, WI  08/23 23:00 CDT 2.34 79.8 32.0 
05407000 WISCONSIN RIVER AT MUSCODA, WI  08/23 23:00 CDT -- 9,360 5,430 
      [15- min averaging]  08/23 23:00 CDT 2.52 --     --- 
05407470 KICKAPOO RIVER AT STATE HIGHWAY 33 AT ONTARIO, WI  08/23 23:00 CDT 8.79 85.7 59.0 
05408000 KICKAPOO RIVER AT LA FARGE, WI  08/23 23:15 CDT 3.99 291 121 
05410490 KICKAPOO RIVER AT STEUBEN, WI  08/23 22:45 CDT 7.99 926 488 
433821090063801 DISCOVERY FARMS WATERWAY RS2 NEAR MAUSTON, WI  08/23 23:00 CDT 0.00 0.00     --- 
433939090050501 DISCOVERY FARMS WATERWAY RS1 NEAR MAUSTON, WI  08/23 23:00 CDT -0.00 0.00     --- 
435857089325301 PLEASANT LAKE NEAR WESTFIELD, WI  08/23 23:00 CDT 13.62 --     --- 
451021089064901 DISCOVERY FARMS WATERWAY AO1 NEAR ANTIGO, WI  08/23 23:00 CDT -0.00 0.00     --- 
451207089041801 DISCOVERY FARMS WATERWAY AO2 NEAR ANTIGO, WI  08/23 23:00 CDT 0.02 0.00     --- 
Group GRANT-PLATTE-GALENA RIVER BASINS
05411500 Mississippi River at Clayton, IA  08/23 22:45 CDT 12.25 --     --- 
05413500 GRANT RIVER AT BURTON, WI  08/23 23:15 CDT 6.46 284 113 
05414000 PLATTE RIVER NEAR ROCKVILLE, WI  08/23 23:15 CDT -- 156 63.0 
      [Primary Stage]  08/23 23:15 CDT 4.19 --     --- 
Group ROCK RIVER BASIN
05423500 SOUTH BRANCH ROCK RIVER AT WAUPUN, WI  08/23 23:00 CDT 2.25 17.5 6.60 
05424057 ROCK RIVER AT HORICON, WI  08/23 23:00 CDT 6.78 206 74.0 
05425500 ROCK RIVER AT WATERTOWN, WI  08/23 23:00 CDT 2.02 416 135 
05425912 BEAVERDAM RIVER AT BEAVER DAM, WI  08/23 23:00 CDT 839.14 36.3 21.0 
05426000 CRAWFISH RIVER AT MILFORD, WI  08/23 23:15 CDT 2.49 281 117 
05426067 BARK RIVER AT NAGAWICKA ROAD AT DELAFIELD, WI  08/23 23:00 CDT 12.63 30.3 24.0 
05426250 BARK RIVER NEAR ROME, WI  08/23 23:15 CDT 1.96 69.6 65.0 
05426350 SCUPPERNONG RIVER UPSTREAM OF MARL PIT NR EAGLE,WI  08/23 23:15 CDT 0.69 4.71 3.50 
05426380 PARADISE SPRINGS CREEK NEAR EAGLE, WI  08/23 22:30 CDT 1.05 3.49 2.50 
05427085 ROCK RIVER AT ROBERT STREET AT FORT ATKINSON, WI  08/23 23:00 CDT 11.53 755 594 
05427235 LAKE KOSHKONONG NEAR NEWVILLE, WI  08/23 23:15 CDT 6.56 --     --- 
05427530 ROCK RIVER AT NEWVILLE, WI  08/23 23:00 CDT 2.96 1,130 621 
05427718 YAHARA RIVER AT WINDSOR, WI  08/23 23:10 CDT 1.61 24.6 17.0 
05427850 YAHARA RIVER AT STATE HIGHWAY 113 AT MADISON, WI  08/23 23:00 CDT 10.67 --     --- 
      [(4)]  08/23 23:00 CDT -- 72.6 65.0 
05427880 SIXMILE CREEK AT STATE HIGHWAY 19 NEAR WAUNAKEE,WI  08/23 23:05 CDT 4.52 23.6 11.0 
05427910 SIXMILE CREEK @ COUNTY TRNK HGHWY M NR WAUNAKEE,WI  08/23 23:00 CDT 10.89 39.5 18.0 
05427927 DORN (SPRING) CREEK @ CT HIGHWAY Q NR WAUNAKEE, WI  08/23 23:00 CDT 0.48 10.1 4.50 
05427930 DORN (SPRING) CREEK AT CT HIGHWAY M NR WAUNAKEE,WI  08/23 23:00 CDT 11.01 25.2 3.80 
05427943 PHEASANT BRANCH AT AIRPORT ROAD NEAR MIDDLETON, WI  08/23 23:10 CDT 3.76 2.65 1.10 
054279465 S FORK PHEASANT BRANCH @ DEMING WAY @ MIDDLETON,WI  08/23 23:00 CDT 2.45 0.55 1.30 
05427948 PHEASANT BRANCH AT MIDDLETON, WI  08/23 23:00 CDT 3.67 5.66 2.00 
05427965 SPRING HARBOR STORM SEWER AT MADISON, WI  08/23 15:09 CDT -- 0.11 .18 
      [(2)]  08/23 15:09 CDT 0.43 --     --- 
05428000 LAKE MENDOTA AT MADISON, WI  08/23 23:00 CDT 10.59 --     --- 
05428500 YAHARA RIVER AT EAST MAIN STREET AT MADISON, WI  08/23 22:55 CDT 7.10 199 88.0 
05429000 LAKE MONONA AT MADISON, WI  08/23 23:00 CDT 6.66 --     --- 
05429485 LAKE WAUBESA AT MC FARLAND, WI  08/23 22:00 CDT 6.26 --     --- 
05429500 YAHARA RIVER AT MC FARLAND, WI  08/23 22:00 CDT -- 296 107 
      [RADAR]  08/23 22:00 CDT 6.24 --     --- 
05429700 YAHARA RIVER @ FORTON STREET BRIDGE @ STOUGHTON,WI  08/23 23:00 CDT 6.39 328 188 
05430150 BADFISH CREEK NEAR COOKSVILLE, WI  08/23 23:00 CDT 5.35 136 97.0 
05430175 YAHARA RIVER NEAR FULTON, WI  08/23 23:00 CDT 4.93 542 286 
05430500 ROCK RIVER AT AFTON, WI  08/23 23:00 CDT 4.74 1,960 866 
05431016 JACKSON CREEK AT MOUND ROAD NEAR ELKHORN, WI  08/23 23:00 CDT 8.38 2.98 2.10 
05431486 TURTLE CREEK AT CARVERS ROCK ROAD NEAR CLINTON, WI  08/23 23:00 CDT 3.95 132 65.0 
05432500 PECATONICA RIVER AT DARLINGTON, WI  08/23 23:15 CDT 3.83 285 115 
05433000 EAST BRANCH PECATONICA RIVER NR BLANCHARDVILLE, WI  08/23 23:00 CDT 5.48 224 103 
05434500 PECATONICA RIVER AT MARTINTOWN, WI  08/23 23:00 CDT 7.44 1,070 504 
05435943 BADGER MILL CREEK AT VERONA, WI  08/23 23:00 CDT -- 25.3 14.0 
      [Current Stage]  08/23 23:00 CDT 5.12 --     --- 
05435950 SUGAR RIVER NEAR VERONA, WI  08/23 23:00 CDT 3.55 97.5 72.0 
05436500 SUGAR RIVER NEAR BRODHEAD, WI  08/23 23:00 CDT 1.81 521 233 
05438283 PISCASAW CREEK NEAR WALWORTH, WI  08/23 23:15 CDT 4.76 5.48 1.80 
423645088595501 DISCOVERY FARMS CORE WATERWY AR2 NR JANESVILLE, WI  08/23 23:00 CDT 0.00 0.00000     --- 
423740088592701 DISCOVERY FARMS CORE WATERWY AR1 NR JANESVILLE, WI  08/23 23:00 CDT -0.00 0.00000     --- 
423954089071501 DISCOVERY FARMS CORE WATERWAY 1 NR JANESVILLE, WI  08/23 23:00 CDT -0.00 0.00000 .000 
424008089050201 DISCOVERY FARMS CORE WATERWAY 5 NR JANESVILLE, WI  08/23 23:00 CDT -0.00 0.00000 .000 
425715089164700 LAKE KEGONSA AT BARBER DRIVE NEAR STOUGHTON, WI  08/23 23:00 CDT 3.64 --     --- 
430356089293601 SOUTH YELLOWSTONE DRIVE STORM SEWER AT MADISON, WI 
      [21 inch pipe]  08/23 23:00 CDT Dis --     --- 
      [48 Pipe]  08/23 23:00 CDT -- 0.00     --- 
      [48 inch pipe]  08/23 23:00 CDT -0.01 --     --- 
      [ACTIVE (21 Pipe)]  11/28 13:00 CST -- Dis     --- 
Group ILLINOIS-FOX RIVER BASINS
05543830 FOX RIVER AT WAUKESHA, WI  08/23 23:00 CDT 2.93 58.9 41.0 
05544200 MUKWONAGO RIVER AT MUKWONAGO, WI  08/23 23:15 CDT 2.35 36.5 34.0 
05544348 FOX RIVER AT WATERFORD DAM, AT WATERFORD, WI  08/23 22:45 CDT 1.67 --     --- 
05544385 MUSKEGO (BIG MUSKEGO) LAKE OUTLET NR WIND LAKE, WI 
      TAILWATER (BASE), [Tailwater]  08/23 22:45 CDT 8.14 --     --- 
      [Headwater]  08/23 22:45 CDT 11.50 --     --- 
05544475 FOX RIVER AT ROCHESTER, WI  08/23 22:45 CDT 4.60 --     --- 
055451345 WHITE RIVER AT CENTER STREET AT LAKE GENEVA, WI  08/23 23:00 CDT 8.14 17.8 4.80 
05545750 FOX RIVER NEAR NEW MUNSTER, WI  08/23 23:00 CDT 6.35 462 342 
423000088164401 ELIZABETH LAKE AT TWIN LAKES, WI-IL 
      [Above Sea Level]  08/23 22:30 CST 794.25 --     --- 
423525088260400 GENEVA LAKE AT LAKE GENEVA, WI  08/23 23:00 CDT 2.48 --     --- 
424848088083100 WIND LAKE AT OUTLET AT WIND LAKE, WI 
      TAILWATER, [Tailwater]  08/23 22:15 CDT 4.84 --     --- 
      [Headwater]  08/23 22:15 CDT 7.96 --     --- 

Data status codes:
  --     Parameter not determined
  Dis     Data-collection discontinued
  Eqp     Equipment malfunction
  Mnt     Maintenance in progress